Pagina principale
METAR-TAF:

METAR-TAF

Aeroporti :

Altenstadt, Germania

latitudine: 47-50N, longitudine: 010-52E, altezza: 739 m

Osservazione

Il bollettino è stato emesso 54 minuti fa, alle 13:20 UTC
Vento 12 kt da est/nord-est
Temperature 15°C
Umidità 77%
Pressione 1028 hPa
Visibilità 10 km o più
Nubi sparse ad un'altezza di 3000 ft
Cielo coperto ad un'altezza di 4500 ft

METAR: ETHA 211320Z 07012KT 9999 SCT030 OVC045 15/11 Q1028 BLU BLU

Ora: 16:14 (14:14 UTC)

Previsione

Il bollettino è stato emesso 34 minuti fa, alle 13:40 UTC
Previsione valida dal 21 alle 14 UTC al 21 alle 23 UTC
Vento 12 kt da est
Visibilità: 1420 m
Nubi sparse ad un'altezza di 2500 ft
Nubi sparse ad un'altezza di 5000 ft

TAF: ETHA 211340Z 2114/2123 09012KT 9999 NSW SCT025 SCT050 CANCEL 1420

Osservazioni e previsioni meteorologiche di più di 4000 aeroporti (messaggi METAR e TAF).

Le stazioni disponibili sono rappresentate dai dischi gialli e rossi sulla carta.

Puntare il mouse per vedere il nome della stazione.

Clicca sopra per visualizzare le osservazioni e previsioni meteorologiche.

Per cambiare la mappa : fare clic sui pulsanti verdi con una croce nera per ingrandire, il pulsante verde con un trattino per diminuire, o sulla freccia verde per le mappe adiacenti.


METAR-TAF: